« Back
NWS Peachtree City, Ga » Text Product » CSG Terminal Aerodrome Forecast

Printer-friendly Version
Current Version              Previous Versions:   1  2  3  4  5  6  7  8  9  

Terminal Aerodrome Forecast

FTUS42 KFFC 100542
KCSG 100542Z 1006/1106 30005KT P6SM BKN100
      TEMPO 1009/1012 3SM SHRA BR BKN010
     FM101200 35005KT 5SM -RA BR OVC010
     FM101600 32008KT P6SM VCSH BKN020
     FM102000 35010KT P6SM SCT025 BKN040=

USA.gov is the U.S. government's official web portal to all federal, state and local government web resources and services.